Time;durP1;ratioP1;P1;durP2;ratioP2;P2;SDS_P1;SDS_P2;PMS_P1;PMS_P2;Temp;Humidity;BMP_temperature;BMP_pressure;BME280_temperature;BME280_humidity;BME280_pressure;Samples;Min_cycle;Max_cycle;Signal;HPM_P1;HPM_P2
2023/08/14 00:02:09;;;;;;;;;;;19.50;99.90;;;;;;4991511;28;20367;-93
2023/08/14 00:04:34;;;;;;;;;;;19.50;99.90;;;;;;5027687;28;19909;-92
2023/08/14 00:07:00;;;;;;;;;;;19.40;99.90;;;;;;5025684;28;19996;-92
2023/08/14 00:09:25;;;;;;;;;;;19.40;99.90;;;;;;4987010;28;20368;-92
2023/08/14 00:11:51;;;;;;;;;;;19.40;99.90;;;;;;5000973;28;19914;-92
2023/08/14 00:14:16;;;;;;;;;;;19.40;99.90;;;;;;5000934;28;19910;-92
2023/08/14 00:16:42;;;;;;;;;;;19.40;99.90;;;;;;5000664;28;19913;-92
2023/08/14 00:19:10;;;;;;;;;;;19.30;99.90;;;;;;5000274;28;20033;-93
2023/08/14 00:21:36;;;;;;;;;;;19.30;99.90;;;;;;5017801;28;19906;-93
2023/08/14 00:24:04;;;;;;;;;;;19.30;99.90;;;;;;5000170;28;19916;-93
2023/08/14 00:26:30;;;;;;;;;;;19.30;99.90;;;;;;4999976;28;19905;-93
2023/08/14 00:28:55;;;;;;;;;;;19.30;99.90;;;;;;5000481;28;19905;-93
2023/08/14 00:31:21;;;;;;;;;;;19.20;99.90;;;;;;5005724;28;20274;-92
2023/08/14 00:33:46;;;;;;;;;;;19.20;99.90;;;;;;5001129;28;20259;-93
2023/08/14 00:36:12;;;;;;;;;;;19.20;99.90;;;;;;5017142;28;19945;-95
2023/08/14 00:38:41;;;;;;;;;;;19.20;99.90;;;;;;5001653;28;19977;-94
2023/08/14 00:41:06;;;;;;;;;;;19.20;99.90;;;;;;5016384;28;19905;-93
2023/08/14 00:43:32;;;;;;;;;;;19.20;99.90;;;;;;5000180;28;19956;-92
2023/08/14 00:45:57;;;;;;;;;;;19.20;99.90;;;;;;5000107;28;19905;-93
2023/08/14 00:48:24;;;;;;;;;;;19.20;99.90;;;;;;4983884;28;20433;-93
2023/08/14 00:50:50;;;;;;;;;;;19.10;99.90;;;;;;4999728;28;19906;-93
2023/08/14 00:53:17;;;;;;;;;;;19.10;99.90;;;;;;4999926;28;19905;-93
2023/08/14 00:55:42;;;;;;;;;;;19.10;99.90;;;;;;5000179;28;19910;-93
2023/08/14 00:58:10;;;;;;;;;;;19.00;99.90;;;;;;4983394;28;22675;-93
2023/08/14 01:00:35;;;;;;;;;;;19.00;99.90;;;;;;4999935;28;20277;-92
2023/08/14 01:03:02;;;;;;;;;;;19.00;99.90;;;;;;5000202;28;19909;-93
2023/08/14 01:05:27;;;;;;;;;;;19.00;99.90;;;;;;4999879;28;19913;-94
2023/08/14 01:07:53;;;;;;;;;;;18.90;99.90;;;;;;4984100;28;19913;-94
2023/08/14 01:10:19;;;;;;;;;;;18.90;99.90;;;;;;4983633;28;20260;-92
2023/08/14 01:12:44;;;;;;;;;;;18.90;99.90;;;;;;4998886;28;19913;-93
2023/08/14 01:15:13;;;;;;;;;;;18.90;99.90;;;;;;5017548;28;19936;-92
2023/08/14 01:17:39;;;;;;;;;;;18.90;99.90;;;;;;5000034;28;19913;-94
2023/08/14 01:20:06;;;;;;;;;;;18.80;99.90;;;;;;4999782;28;19936;-93
2023/08/14 01:23:04;;;;;;;;;;;18.80;99.90;;;;;;4983365;28;20008;-92
2023/08/14 01:25:34;;;;;;;;;;;18.80;99.90;;;;;;4979094;28;19960;-95
2023/08/14 01:28:00;;;;;;;;;;;18.80;99.90;;;;;;5019727;28;19908;-94
2023/08/14 01:30:26;;;;;;;;;;;18.70;99.90;;;;;;5029232;28;19940;-94
2023/08/14 01:32:52;;;;;;;;;;;18.70;99.90;;;;;;5027956;28;19913;-93
2023/08/14 01:35:19;;;;;;;;;;;18.60;99.90;;;;;;5019562;28;19925;-94
2023/08/14 01:37:48;;;;;;;;;;;18.60;99.90;;;;;;5002143;28;19989;-93
2023/08/14 01:40:23;;;;;;;;;;;18.60;99.90;;;;;;5029879;28;19965;-93
2023/08/14 01:42:52;;;;;;;;;;;18.60;99.90;;;;;;5000944;28;19909;-94
2023/08/14 01:45:19;;;;;;;;;;;18.60;99.90;;;;;;5017023;28;19905;-93
2023/08/14 01:47:45;;;;;;;;;;;18.50;99.90;;;;;;5016490;28;19909;-94
2023/08/14 01:50:13;;;;;;;;;;;18.50;99.90;;;;;;5000272;28;20326;-94
2023/08/14 01:52:38;;;;;;;;;;;18.50;99.90;;;;;;4998551;28;19968;-93
2023/08/14 01:55:04;;;;;;;;;;;18.40;99.90;;;;;;5016413;28;19909;-94
2023/08/14 01:57:30;;;;;;;;;;;18.40;99.90;;;;;;4983097;28;20350;-93
2023/08/14 01:59:57;;;;;;;;;;;18.40;99.90;;;;;;4998939;28;19920;-95
2023/08/14 02:02:22;;;;;;;;;;;18.40;99.90;;;;;;5017439;28;19952;-94
2023/08/14 02:04:48;;;;;;;;;;;18.40;99.90;;;;;;4998697;28;19906;-95
2023/08/14 02:07:13;;;;;;;;;;;18.30;99.90;;;;;;4999131;28;20376;-93
2023/08/14 02:09:39;;;;;;;;;;;18.30;99.90;;;;;;5016259;28;19909;-94
2023/08/14 02:12:04;;;;;;;;;;;18.30;99.90;;;;;;5032147;28;19914;-94
2023/08/14 02:14:30;;;;;;;;;;;18.30;99.90;;;;;;4983407;28;19980;-95
2023/08/14 02:16:55;;;;;;;;;;;18.30;99.90;;;;;;4998301;28;19905;-94
2023/08/14 02:19:21;;;;;;;;;;;18.30;99.90;;;;;;4998212;28;19949;-93
2023/08/14 02:21:48;;;;;;;;;;;18.20;99.90;;;;;;4998647;28;19905;-94
2023/08/14 02:24:13;;;;;;;;;;;18.20;99.90;;;;;;4998963;28;19909;-93
2023/08/14 02:26:39;;;;;;;;;;;18.20;99.90;;;;;;4982536;28;20013;-94
2023/08/14 02:29:04;;;;;;;;;;;18.20;99.90;;;;;;4982895;28;19914;-94
2023/08/14 02:31:30;;;;;;;;;;;18.20;99.90;;;;;;5008611;28;20341;-93
2023/08/14 02:33:59;;;;;;;;;;;18.20;99.90;;;;;;5018914;28;19932;-95
2023/08/14 02:36:25;;;;;;;;;;;18.20;99.90;;;;;;5018566;28;20323;-93
2023/08/14 02:38:52;;;;;;;;;;;18.20;99.90;;;;;;5018180;28;19905;-94
2023/08/14 02:41:17;;;;;;;;;;;18.20;99.90;;;;;;5018017;28;19912;-92
2023/08/14 02:43:43;;;;;;;;;;;18.20;99.90;;;;;;5034957;28;19909;-93
2023/08/14 02:46:09;;;;;;;;;;;18.20;99.90;;;;;;5036022;28;20280;-95
2023/08/14 02:48:34;;;;;;;;;;;18.20;99.90;;;;;;5018407;28;20009;-93
2023/08/14 02:51:00;;;;;;;;;;;18.10;99.90;;;;;;5018137;28;19940;-93
2023/08/14 02:53:25;;;;;;;;;;;18.10;99.90;;;;;;5001721;28;19913;-94
2023/08/14 02:55:52;;;;;;;;;;;18.10;99.90;;;;;;5035727;28;19910;-94
2023/08/14 02:58:17;;;;;;;;;;;18.10;99.90;;;;;;5018067;28;19920;-93
2023/08/14 03:00:44;;;;;;;;;;;18.00;99.90;;;;;;5017898;28;20003;-93
2023/08/14 03:03:10;;;;;;;;;;;18.00;99.90;;;;;;5019517;28;19905;-93
2023/08/14 03:05:37;;;;;;;;;;;18.00;99.90;;;;;;5021489;28;19909;-93
2023/08/14 03:08:03;;;;;;;;;;;18.00;99.90;;;;;;5022038;28;19916;-93
2023/08/14 03:10:28;;;;;;;;;;;18.00;99.90;;;;;;5005682;28;19909;-94
2023/08/14 03:12:55;;;;;;;;;;;18.00;99.90;;;;;;5039532;28;19913;-93
2023/08/14 03:15:20;;;;;;;;;;;18.00;99.90;;;;;;5039362;28;19909;-94
2023/08/14 03:17:46;;;;;;;;;;;18.00;99.90;;;;;;5005649;28;19916;-93
2023/08/14 03:20:12;;;;;;;;;;;18.00;99.90;;;;;;5039585;28;19905;-93
2023/08/14 03:22:37;;;;;;;;;;;18.00;99.90;;;;;;5038670;28;19909;-93
2023/08/14 03:25:03;;;;;;;;;;;18.00;99.90;;;;;;5038926;28;19951;-94
2023/08/14 03:27:29;;;;;;;;;;;17.90;99.90;;;;;;5021393;28;19909;-93
2023/08/14 03:29:55;;;;;;;;;;;17.90;99.90;;;;;;5005249;28;19919;-92
2023/08/14 03:32:20;;;;;;;;;;;17.90;99.90;;;;;;4988994;28;19928;-93
2023/08/14 03:34:46;;;;;;;;;;;17.90;99.90;;;;;;5001826;28;19913;-94
2023/08/14 03:37:12;;;;;;;;;;;17.80;99.90;;;;;;5018205;28;19960;-93
2023/08/14 03:39:37;;;;;;;;;;;17.80;99.90;;;;;;5019238;28;19905;-93
2023/08/14 03:42:03;;;;;;;;;;;17.80;99.90;;;;;;5019878;28;19913;-95
2023/08/14 03:44:28;;;;;;;;;;;17.80;99.90;;;;;;4987502;28;19961;-95
2023/08/14 03:46:54;;;;;;;;;;;17.80;99.90;;;;;;5004048;28;19909;-95
2023/08/14 03:49:19;;;;;;;;;;;17.70;99.90;;;;;;5023002;28;19916;-95
2023/08/14 03:51:45;;;;;;;;;;;17.70;99.90;;;;;;5026474;28;19948;-92
2023/08/14 03:54:10;;;;;;;;;;;17.80;99.90;;;;;;5009084;28;19984;-93
2023/08/14 03:56:36;;;;;;;;;;;17.70;99.90;;;;;;4994344;28;19944;-93
2023/08/14 03:59:02;;;;;;;;;;;17.70;99.90;;;;;;4991608;28;20052;-93
2023/08/14 04:01:28;;;;;;;;;;;17.70;99.90;;;;;;5020043;28;19968;-93
2023/08/14 04:03:53;;;;;;;;;;;17.70;99.90;;;;;;4985673;28;19910;-93
2023/08/14 04:06:19;;;;;;;;;;;17.70;99.90;;;;;;5001590;28;19906;-95
2023/08/14 04:08:45;;;;;;;;;;;17.70;99.90;;;;;;5018648;28;20269;-93
2023/08/14 04:11:11;;;;;;;;;;;17.60;99.90;;;;;;5001297;28;19917;-93
2023/08/14 04:13:37;;;;;;;;;;;17.70;99.90;;;;;;5001308;28;19932;-94
2023/08/14 04:16:03;;;;;;;;;;;17.60;99.90;;;;;;5000022;28;20349;-93
2023/08/14 04:18:29;;;;;;;;;;;17.70;99.90;;;;;;5000650;28;19993;-93
2023/08/14 04:20:55;;;;;;;;;;;17.60;99.90;;;;;;5017816;28;19909;-93
2023/08/14 04:23:22;;;;;;;;;;;17.60;99.90;;;;;;5000524;28;19909;-93
2023/08/14 04:25:47;;;;;;;;;;;17.60;99.90;;;;;;5000348;28;20338;-93
2023/08/14 04:28:13;;;;;;;;;;;17.60;99.90;;;;;;5016530;28;19960;-93
2023/08/14 04:30:38;;;;;;;;;;;17.60;99.90;;;;;;5000152;28;19969;-95
2023/08/14 04:33:04;;;;;;;;;;;17.60;99.90;;;;;;5000811;28;20498;-93
2023/08/14 04:35:30;;;;;;;;;;;17.60;99.90;;;;;;4984479;28;19914;-94
2023/08/14 04:37:55;;;;;;;;;;;17.60;99.90;;;;;;4983937;28;19909;-93
2023/08/14 04:40:21;;;;;;;;;;;17.60;99.90;;;;;;5001406;28;19910;-93
2023/08/14 04:42:46;;;;;;;;;;;17.60;99.90;;;;;;5018203;28;19933;-93
2023/08/14 04:45:12;;;;;;;;;;;17.50;99.90;;;;;;5000460;28;19941;-93
2023/08/14 04:47:37;;;;;;;;;;;17.50;99.90;;;;;;5000217;28;19917;-93
2023/08/14 04:50:03;;;;;;;;;;;17.50;99.90;;;;;;5017507;28;19909;-93
2023/08/14 04:52:29;;;;;;;;;;;17.50;99.90;;;;;;4983604;28;20272;-93
2023/08/14 04:54:57;;;;;;;;;;;17.60;99.90;;;;;;4983301;28;19913;-94
2023/08/14 04:57:25;;;;;;;;;;;17.60;99.90;;;;;;5018556;28;19913;-93
2023/08/14 04:59:51;;;;;;;;;;;17.60;99.90;;;;;;4984351;28;20420;-93
2023/08/14 05:02:16;;;;;;;;;;;17.60;99.90;;;;;;5018396;28;19949;-93
2023/08/14 05:04:42;;;;;;;;;;;17.60;99.90;;;;;;5000307;28;19909;-94
2023/08/14 05:07:07;;;;;;;;;;;17.60;99.90;;;;;;5001233;28;20349;-93
2023/08/14 05:09:33;;;;;;;;;;;17.70;99.90;;;;;;5018857;28;19906;-92
2023/08/14 05:11:58;;;;;;;;;;;17.70;99.90;;;;;;4986141;28;20364;-94
2023/08/14 05:14:24;;;;;;;;;;;17.70;99.90;;;;;;5001131;28;20067;-93
2023/08/14 05:16:50;;;;;;;;;;;17.70;99.90;;;;;;5029063;28;19949;-93
2023/08/14 05:19:15;;;;;;;;;;;17.70;99.90;;;;;;5011095;28;19911;-93
2023/08/14 05:21:41;;;;;;;;;;;17.80;99.90;;;;;;5030395;28;20016;-79
2023/08/14 05:24:07;;;;;;;;;;;17.80;99.90;;;;;;5014829;28;19912;-79
2023/08/14 05:26:32;;;;;;;;;;;17.80;99.90;;;;;;5014395;28;19994;-80
2023/08/14 05:28:58;;;;;;;;;;;17.80;99.90;;;;;;5004670;28;19910;-92
2023/08/14 05:31:24;;;;;;;;;;;17.90;99.90;;;;;;4987210;28;19921;-92
2023/08/14 05:33:49;;;;;;;;;;;17.90;99.90;;;;;;5002071;28;19996;-91
2023/08/14 05:36:15;;;;;;;;;;;17.90;99.90;;;;;;4999413;28;19918;-92
2023/08/14 05:38:40;;;;;;;;;;;18.00;99.90;;;;;;5006434;28;19913;-92
2023/08/14 05:41:06;;;;;;;;;;;18.00;99.90;;;;;;5019752;28;19909;-92
2023/08/14 05:43:31;;;;;;;;;;;18.00;99.90;;;;;;5019864;28;19905;-91
2023/08/14 05:45:57;;;;;;;;;;;18.10;99.90;;;;;;5019077;28;19956;-93
2023/08/14 05:48:25;;;;;;;;;;;18.10;99.90;;;;;;5021376;28;20304;-92
2023/08/14 05:50:52;;;;;;;;;;;18.10;99.90;;;;;;5036181;28;19952;-93
2023/08/14 05:53:18;;;;;;;;;;;18.20;99.90;;;;;;5019238;28;20244;-92
2023/08/14 05:55:43;;;;;;;;;;;18.20;99.90;;;;;;5019743;28;19905;-92
2023/08/14 05:58:09;;;;;;;;;;;18.20;99.90;;;;;;5018722;28;20254;-93
2023/08/14 06:00:35;;;;;;;;;;;18.30;99.90;;;;;;5018164;28;20255;-93
2023/08/14 06:03:01;;;;;;;;;;;18.30;99.90;;;;;;5019228;28;20360;-92
2023/08/14 06:05:27;;;;;;;;;;;18.30;99.90;;;;;;5036468;28;19905;-92
2023/08/14 06:07:53;;;;;;;;;;;18.40;99.90;;;;;;5018052;28;19905;-89
2023/08/14 06:10:19;;;;;;;;;;;18.40;99.90;;;;;;5034733;28;19909;-89
2023/08/14 06:12:44;;;;;;;;;;;18.40;99.90;;;;;;4999739;28;19922;-88
2023/08/14 06:15:10;;;;;;;;;;;18.50;99.90;;;;;;4982254;28;20368;-89
2023/08/14 06:17:41;;;;;;;;;;;18.50;99.90;;;;;;4999031;28;19916;-88
2023/08/14 06:26:16;;;;;;;;;;;18.50;99.90;;;;;;5015136;28;19909;-81
2023/08/14 06:28:41;;;;;;;;;;;18.50;99.90;;;;;;4996244;28;19905;-81
2023/08/14 06:31:07;;;;;;;;;;;18.60;99.90;;;;;;4989449;28;19928;-82
2023/08/14 06:33:32;;;;;;;;;;;18.60;99.90;;;;;;4966634;28;20392;-82
2023/08/14 06:35:58;;;;;;;;;;;18.60;99.90;;;;;;5010560;28;20340;-81
2023/08/14 06:38:24;;;;;;;;;;;18.60;99.90;;;;;;5007823;28;19920;-81
2023/08/14 06:40:49;;;;;;;;;;;18.60;99.90;;;;;;4997688;28;19906;-81
2023/08/14 06:43:15;;;;;;;;;;;18.70;99.90;;;;;;4979878;28;19914;-81
2023/08/14 06:45:40;;;;;;;;;;;18.70;99.90;;;;;;4980291;28;19910;-81
2023/08/14 06:48:06;;;;;;;;;;;18.70;99.90;;;;;;4980196;28;19918;-81
2023/08/14 06:50:31;;;;;;;;;;;18.70;99.90;;;;;;4980292;28;20442;-81
2023/08/14 06:52:57;;;;;;;;;;;18.70;99.90;;;;;;4996356;28;19918;-81
2023/08/14 06:55:22;;;;;;;;;;;18.80;99.90;;;;;;4980259;28;20012;-81
2023/08/14 06:57:48;;;;;;;;;;;18.80;99.90;;;;;;4980139;28;19917;-81
2023/08/14 07:00:14;;;;;;;;;;;18.80;99.90;;;;;;4980073;28;20308;-81
2023/08/14 07:02:40;;;;;;;;;;;18.90;99.90;;;;;;4980189;28;19916;-81
2023/08/14 07:05:06;;;;;;;;;;;18.90;99.90;;;;;;4996134;28;19906;-83
2023/08/14 07:07:31;;;;;;;;;;;18.90;99.90;;;;;;4995931;28;20005;-81
2023/08/14 07:09:57;;;;;;;;;;;19.00;99.90;;;;;;4979915;28;19961;-81
2023/08/14 07:12:22;;;;;;;;;;;19.00;99.90;;;;;;4997128;28;19981;-81
2023/08/14 07:14:48;;;;;;;;;;;19.00;99.90;;;;;;4979953;28;19961;-81
2023/08/14 07:17:13;;;;;;;;;;;19.10;99.90;;;;;;4979559;28;20409;-82
2023/08/14 07:19:39;;;;;;;;;;;19.20;99.90;;;;;;4979679;28;19917;-81
2023/08/14 07:22:05;;;;;;;;;;;19.20;99.90;;;;;;4979790;28;20270;-81
2023/08/14 07:24:31;;;;;;;;;;;19.30;99.90;;;;;;4997012;28;19917;-81
2023/08/14 07:26:57;;;;;;;;;;;19.30;99.90;;;;;;4979884;28;20008;-82
2023/08/14 07:29:23;;;;;;;;;;;19.30;99.90;;;;;;4979566;28;19972;-83
2023/08/14 07:31:48;;;;;;;;;;;19.30;99.90;;;;;;4979647;28;19926;-83
2023/08/14 07:34:14;;;;;;;;;;;19.40;99.90;;;;;;4997216;28;19909;-83
2023/08/14 07:36:39;;;;;;;;;;;19.40;99.90;;;;;;4979795;28;20239;-83
2023/08/14 07:39:05;;;;;;;;;;;19.50;99.90;;;;;;5001883;28;19914;-83
2023/08/14 07:41:31;;;;;;;;;;;19.50;99.90;;;;;;4982965;28;20337;-83
2023/08/14 07:43:56;;;;;;;;;;;19.60;99.90;;;;;;4998276;28;19910;-83
2023/08/14 07:46:22;;;;;;;;;;;19.60;99.90;;;;;;4996839;28;20301;-83
2023/08/14 07:48:47;;;;;;;;;;;19.60;99.90;;;;;;4979449;28;19932;-83
2023/08/14 07:51:13;;;;;;;;;;;19.70;99.90;;;;;;4979322;28;20253;-84
2023/08/14 07:53:38;;;;;;;;;;;19.70;99.90;;;;;;4982345;28;19914;-83
2023/08/14 07:56:04;;;;;;;;;;;19.70;99.90;;;;;;4979206;28;19910;-83
2023/08/14 07:58:29;;;;;;;;;;;19.80;99.90;;;;;;4978988;28;19910;-84
2023/08/14 08:00:55;;;;;;;;;;;19.80;99.90;;;;;;4995451;28;19914;-83
2023/08/14 08:03:21;;;;;;;;;;;19.80;99.90;;;;;;4998352;28;19916;-83
2023/08/14 08:05:47;;;;;;;;;;;19.80;99.90;;;;;;4980529;28;19914;-83
2023/08/14 08:08:12;;;;;;;;;;;19.80;99.90;;;;;;4995757;28;19906;-86
2023/08/14 08:10:38;;;;;;;;;;;19.90;99.90;;;;;;4980821;28;20346;-83
2023/08/14 08:13:03;;;;;;;;;;;19.90;99.90;;;;;;4979248;28;20361;-83
2023/08/14 08:15:30;;;;;;;;;;;19.90;99.90;;;;;;4994906;28;20312;-83
2023/08/14 08:17:55;;;;;;;;;;;19.90;99.90;;;;;;4979368;28;19928;-83
2023/08/14 08:20:21;;;;;;;;;;;20.00;99.90;;;;;;4994993;28;19906;-84
2023/08/14 08:22:46;;;;;;;;;;;20.00;99.90;;;;;;4978941;28;20349;-82
2023/08/14 08:25:12;;;;;;;;;;;20.00;99.90;;;;;;4995099;28;19910;-82
2023/08/14 08:27:37;;;;;;;;;;;20.10;99.90;;;;;;4978618;28;20253;-83
2023/08/14 08:30:03;;;;;;;;;;;20.10;99.90;;;;;;4978349;28;19960;-83
2023/08/14 08:32:29;;;;;;;;;;;20.20;99.90;;;;;;4994108;28;19917;-83
2023/08/14 08:34:55;;;;;;;;;;;20.20;99.90;;;;;;4962539;28;19985;-83
2023/08/14 08:37:20;;;;;;;;;;;20.30;99.90;;;;;;4962133;28;19917;-83
2023/08/14 08:39:46;;;;;;;;;;;20.40;99.90;;;;;;4994835;28;20532;-83
2023/08/14 08:42:11;;;;;;;;;;;20.40;99.90;;;;;;4978539;28;20273;-82
2023/08/14 08:44:38;;;;;;;;;;;20.50;99.90;;;;;;4995619;28;20003;-83
2023/08/14 08:47:09;;;;;;;;;;;20.50;99.90;;;;;;4995862;28;19906;-83
2023/08/14 08:49:35;;;;;;;;;;;20.60;99.90;;;;;;4995429;28;20025;-83
2023/08/14 08:52:02;;;;;;;;;;;20.70;99.90;;;;;;4978422;28;19934;-84
2023/08/14 08:54:27;;;;;;;;;;;20.70;99.90;;;;;;4995732;28;19953;-83
2023/08/14 08:56:55;;;;;;;;;;;20.80;99.90;;;;;;4978642;28;20305;-83
2023/08/14 08:59:21;;;;;;;;;;;20.80;99.90;;;;;;4995734;28;19905;-82
2023/08/14 09:01:47;;;;;;;;;;;20.90;99.90;;;;;;4978443;28;19918;-83
2023/08/14 09:04:12;;;;;;;;;;;20.90;99.90;;;;;;4978412;28;20354;-85
2023/08/14 09:06:38;;;;;;;;;;;21.00;99.90;;;;;;4977653;28;20306;-84
2023/08/14 09:09:04;;;;;;;;;;;21.10;99.90;;;;;;4964274;28;19920;-83
2023/08/14 09:11:30;;;;;;;;;;;21.10;99.90;;;;;;4996160;28;19918;-82
2023/08/14 09:13:56;;;;;;;;;;;21.20;99.90;;;;;;4963911;28;19914;-83
2023/08/14 09:16:23;;;;;;;;;;;21.30;99.90;;;;;;5000854;28;19916;-83
2023/08/14 09:18:48;;;;;;;;;;;21.30;99.90;;;;;;4982376;28;19906;-82
2023/08/14 09:21:15;;;;;;;;;;;21.40;99.90;;;;;;4978546;28;19917;-83
2023/08/14 09:23:41;;;;;;;;;;;21.50;99.90;;;;;;4978207;28;20352;-83
2023/08/14 09:26:06;;;;;;;;;;;21.50;99.90;;;;;;4961850;28;19949;-83
2023/08/14 09:28:32;;;;;;;;;;;21.60;99.90;;;;;;4978035;28;19906;-82
2023/08/14 09:31:06;;;;;;;;;;;21.60;99.90;;;;;;4977619;28;19957;-82
2023/08/14 09:33:31;;;;;;;;;;;21.70;99.90;;;;;;4994608;28;20302;-84
2023/08/14 09:35:57;;;;;;;;;;;21.80;99.90;;;;;;4995012;28;19916;-83
2023/08/14 09:38:23;;;;;;;;;;;21.90;99.90;;;;;;4977673;28;19910;-85
2023/08/14 09:40:48;;;;;;;;;;;21.90;99.90;;;;;;4994431;28;19916;-84
2023/08/14 09:43:14;;;;;;;;;;;22.00;99.90;;;;;;4993326;28;19909;-83
2023/08/14 09:45:39;;;;;;;;;;;22.10;99.90;;;;;;4980411;28;19910;-91
2023/08/14 09:48:05;;;;;;;;;;;22.10;99.90;;;;;;4981269;28;19914;-91
2023/08/14 09:50:31;;;;;;;;;;;22.20;99.90;;;;;;4982223;28;19917;-92
2023/08/14 09:53:00;;;;;;;;;;;22.20;99.90;;;;;;4999087;28;19910;-92
2023/08/14 09:55:29;;;;;;;;;;;22.30;99.90;;;;;;5005682;28;19960;-93
2023/08/14 09:57:58;;;;;;;;;;;22.40;99.90;;;;;;5001951;28;19905;-92
2023/08/14 10:00:37;;;;;;;;;;;22.40;99.90;;;;;;4995310;28;19913;-94
2023/08/14 10:03:05;;;;;;;;;;;22.50;99.90;;;;;;4998895;28;20315;-91
2023/08/14 10:05:31;;;;;;;;;;;22.60;99.90;;;;;;4998112;28;19913;-93
2023/08/14 10:07:57;;;;;;;;;;;22.60;99.90;;;;;;5001522;28;19906;-92
2023/08/14 10:10:24;;;;;;;;;;;22.70;99.90;;;;;;5001283;28;19909;-91
2023/08/14 10:13:18;;;;;;;;;;;22.80;99.90;;;;;;4999959;28;19909;-92
2023/08/14 10:15:46;;;;;;;;;;;22.90;99.90;;;;;;5015982;28;19960;-91
2023/08/14 10:18:16;;;;;;;;;;;22.90;99.90;;;;;;5000572;28;19988;-91
2023/08/14 10:20:43;;;;;;;;;;;23.00;99.90;;;;;;5000203;28;19967;-91
2023/08/14 10:23:09;;;;;;;;;;;23.00;99.90;;;;;;5000631;28;19905;-91
2023/08/14 10:25:38;;;;;;;;;;;23.10;99.90;;;;;;4985014;28;19914;-92
2023/08/14 10:28:04;;;;;;;;;;;23.10;99.90;;;;;;5001898;28;19905;-92
2023/08/14 10:30:39;;;;;;;;;;;23.20;99.90;;;;;;5001118;28;19912;-91
2023/08/14 10:33:06;;;;;;;;;;;23.30;99.90;;;;;;5001352;28;19945;-92
2023/08/14 10:35:43;;;;;;;;;;;23.30;99.90;;;;;;5001376;28;19905;-92
2023/08/14 10:38:09;;;;;;;;;;;23.30;99.90;;;;;;5001137;28;19906;-92
2023/08/14 10:40:34;;;;;;;;;;;23.30;99.90;;;;;;5000877;28;19916;-92
2023/08/14 10:43:00;;;;;;;;;;;23.40;99.90;;;;;;5000554;28;19913;-92
2023/08/14 10:45:27;;;;;;;;;;;23.40;99.90;;;;;;5003583;28;19981;-94
2023/08/14 10:47:57;;;;;;;;;;;23.40;99.90;;;;;;4997796;28;19960;-81
2023/08/14 10:50:23;;;;;;;;;;;23.50;99.90;;;;;;4996916;28;19913;-81
2023/08/14 10:52:53;;;;;;;;;;;23.50;99.90;;;;;;5013539;28;20004;-82
2023/08/14 10:55:38;;;;;;;;;;;23.60;99.90;;;;;;5013874;28;19909;-82
2023/08/14 10:58:23;;;;;;;;;;;23.70;99.90;;;;;;4995520;28;20341;-81
2023/08/14 11:00:51;;;;;;;;;;;23.80;99.90;;;;;;4996212;28;19913;-81
2023/08/14 11:03:16;;;;;;;;;;;23.80;99.90;;;;;;5014251;28;19921;-81
2023/08/14 11:05:42;;;;;;;;;;;23.90;99.90;;;;;;4980398;28;20004;-82
2023/08/14 11:08:08;;;;;;;;;;;23.90;99.90;;;;;;4996795;28;19910;-81
2023/08/14 11:10:34;;;;;;;;;;;24.00;99.90;;;;;;4980019;28;19940;-82
2023/08/14 11:13:00;;;;;;;;;;;24.10;99.90;;;;;;5013614;28;19909;-81
2023/08/14 11:15:26;;;;;;;;;;;24.10;99.90;;;;;;5013703;28;19924;-82
2023/08/14 11:17:51;;;;;;;;;;;24.20;99.90;;;;;;5013412;28;19906;-81
2023/08/14 11:20:17;;;;;;;;;;;24.20;99.90;;;;;;5013863;28;19917;-81
2023/08/14 11:22:46;;;;;;;;;;;24.20;99.90;;;;;;5013654;28;19925;-81
2023/08/14 11:25:12;;;;;;;;;;;24.20;99.90;;;;;;5017920;28;19913;-81
2023/08/14 11:27:38;;;;;;;;;;;24.20;99.90;;;;;;4999767;28;19909;-83
2023/08/14 11:30:03;;;;;;;;;;;24.30;99.90;;;;;;4999234;28;19924;-82
2023/08/14 11:32:29;;;;;;;;;;;24.30;99.90;;;;;;4979305;28;19922;-81
2023/08/14 11:34:54;;;;;;;;;;;24.40;99.90;;;;;;4979589;28;19941;-81
2023/08/14 11:37:20;;;;;;;;;;;24.50;99.90;;;;;;4997260;28;20000;-81
2023/08/14 11:39:46;;;;;;;;;;;24.50;99.90;;;;;;4979669;28;20358;-81
2023/08/14 11:42:12;;;;;;;;;;;24.50;99.90;;;;;;4997369;28;19906;-81
2023/08/14 11:44:37;;;;;;;;;;;24.60;99.90;;;;;;4963728;28;19925;-82
2023/08/14 11:47:06;;;;;;;;;;;24.70;99.90;;;;;;4979786;28;20342;-81
2023/08/14 11:49:32;;;;;;;;;;;24.70;99.90;;;;;;4979541;28;19913;-86
2023/08/14 11:51:57;;;;;;;;;;;24.80;99.90;;;;;;4980033;28;19914;-85
2023/08/14 11:54:23;;;;;;;;;;;24.80;99.90;;;;;;4997242;28;19909;-85
2023/08/14 11:56:49;;;;;;;;;;;24.90;99.90;;;;;;4997491;28;19975;-86
2023/08/14 11:59:15;;;;;;;;;;;25.00;99.90;;;;;;4963778;28;19911;-86
2023/08/14 12:01:41;;;;;;;;;;;25.00;99.90;;;;;;4980069;28;19906;-86
2023/08/14 12:04:07;;;;;;;;;;;25.10;99.90;;;;;;4964261;28;20350;-85
2023/08/14 12:06:33;;;;;;;;;;;25.10;99.90;;;;;;4980007;28;20017;-85
2023/08/14 12:08:59;;;;;;;;;;;25.20;99.90;;;;;;4979741;28;20253;-80
2023/08/14 12:11:25;;;;;;;;;;;25.30;99.90;;;;;;4980815;28;19914;-79
2023/08/14 12:13:51;;;;;;;;;;;25.30;99.90;;;;;;4996718;28;19917;-79
2023/08/14 12:16:16;;;;;;;;;;;25.30;99.90;;;;;;4996676;28;19929;-79
2023/08/14 12:18:42;;;;;;;;;;;25.40;99.90;;;;;;4996500;28;19933;-82
2023/08/14 12:21:11;;;;;;;;;;;25.40;99.90;;;;;;4962851;28;19948;-76
2023/08/14 12:23:37;;;;;;;;;;;25.50;99.90;;;;;;4996639;28;19997;-81
2023/08/14 12:26:06;;;;;;;;;;;25.50;99.90;;;;;;4965761;28;19949;-80
2023/08/14 12:28:32;;;;;;;;;;;25.60;99.90;;;;;;4996064;28;20008;-80
2023/08/14 12:30:57;;;;;;;;;;;25.60;99.90;;;;;;4996015;28;20381;-78
2023/08/14 12:33:23;;;;;;;;;;;25.70;99.90;;;;;;5013093;28;20023;-87
2023/08/14 12:35:48;;;;;;;;;;;25.70;99.90;;;;;;4982213;28;19913;-87
2023/08/14 12:38:14;;;;;;;;;;;25.80;99.90;;;;;;5001011;28;19909;-87
2023/08/14 12:40:39;;;;;;;;;;;25.80;99.10;;;;;;4982820;28;19980;-88
2023/08/14 12:43:05;;;;;;;;;;;25.90;99.60;;;;;;4998651;28;20012;-85
2023/08/14 12:45:30;;;;;;;;;;;25.90;99.90;;;;;;4982207;28;19935;-85
2023/08/14 12:47:56;;;;;;;;;;;25.90;99.80;;;;;;4997839;28;19909;-84
2023/08/14 12:50:21;;;;;;;;;;;26.00;99.70;;;;;;5016042;28;19964;-87
2023/08/14 12:52:47;;;;;;;;;;;26.10;99.80;;;;;;4982866;28;19914;-79
2023/08/14 12:55:14;;;;;;;;;;;26.10;99.50;;;;;;5016055;28;19921;-80
2023/08/14 12:57:42;;;;;;;;;;;26.10;99.70;;;;;;4998189;28;19916;-80
2023/08/14 13:00:08;;;;;;;;;;;26.20;99.90;;;;;;5015788;28;20048;-80
2023/08/14 13:02:34;;;;;;;;;;;26.20;99.30;;;;;;5016707;28;19916;-81
2023/08/14 13:05:00;;;;;;;;;;;26.30;99.60;;;;;;5033238;28;20190;-82
2023/08/14 13:07:29;;;;;;;;;;;26.40;99.80;;;;;;4995870;28;19944;-80
2023/08/14 13:09:55;;;;;;;;;;;26.40;99.90;;;;;;4986085;28;19964;-86
2023/08/14 13:12:20;;;;;;;;;;;26.40;99.00;;;;;;5004446;28;19913;-85
2023/08/14 13:14:46;;;;;;;;;;;26.40;98.90;;;;;;5019592;28;19916;-82
2023/08/14 13:17:11;;;;;;;;;;;26.50;99.20;;;;;;4984062;28;19917;-82
2023/08/14 13:19:37;;;;;;;;;;;26.60;99.00;;;;;;4998087;28;19997;-83
2023/08/14 13:22:02;;;;;;;;;;;26.60;98.20;;;;;;4997273;28;19913;-83
2023/08/14 13:24:31;;;;;;;;;;;26.70;98.50;;;;;;4981056;28;20272;-83
2023/08/14 13:26:56;;;;;;;;;;;26.70;98.40;;;;;;4980897;28;19910;-82
2023/08/14 13:29:22;;;;;;;;;;;26.80;97.80;;;;;;4981083;28;19956;-82
2023/08/14 13:31:47;;;;;;;;;;;26.80;97.70;;;;;;4996459;28;19921;-82
2023/08/14 13:34:13;;;;;;;;;;;26.80;97.60;;;;;;4997170;28;19952;-81
2023/08/14 13:36:39;;;;;;;;;;;26.80;97.00;;;;;;5015564;28;19951;-81
2023/08/14 13:39:05;;;;;;;;;;;26.90;97.10;;;;;;5014183;28;19971;-80
2023/08/14 13:41:31;;;;;;;;;;;26.90;96.60;;;;;;4980876;28;19910;-81
2023/08/14 13:43:59;;;;;;;;;;;26.90;97.40;;;;;;5015396;28;19912;-82
2023/08/14 13:46:25;;;;;;;;;;;27.00;97.10;;;;;;5014413;28;19905;-82
2023/08/14 13:48:51;;;;;;;;;;;27.00;96.40;;;;;;5014176;28;19912;-80
2023/08/14 13:51:16;;;;;;;;;;;27.00;94.60;;;;;;4996907;28;19909;-80
2023/08/14 13:53:42;;;;;;;;;;;27.00;95.00;;;;;;4996870;28;19913;-81
2023/08/14 13:56:07;;;;;;;;;;;27.00;95.70;;;;;;5015424;28;19909;-91
2023/08/14 13:58:33;;;;;;;;;;;27.10;95.40;;;;;;4984316;28;19909;-92
2023/08/14 14:01:07;;;;;;;;;;;27.20;95.40;;;;;;4983782;28;19909;-91
2023/08/14 14:03:35;;;;;;;;;;;27.20;95.60;;;;;;5000064;28;19941;-91
2023/08/14 14:06:00;;;;;;;;;;;27.30;95.20;;;;;;4984025;28;19910;-92
2023/08/14 14:08:26;;;;;;;;;;;27.30;94.90;;;;;;5017559;28;20023;-92
2023/08/14 14:10:54;;;;;;;;;;;27.30;95.30;;;;;;5000209;28;19905;-92
2023/08/14 14:13:22;;;;;;;;;;;27.30;95.20;;;;;;5017879;28;20019;-89
2023/08/14 14:15:50;;;;;;;;;;;27.40;95.10;;;;;;5017427;28;19909;-89
2023/08/14 14:18:18;;;;;;;;;;;27.50;94.40;;;;;;5000047;28;20396;-91